Huvudsida
METAR-TAF:

METAR-TAF

Flygplatser :

Skellefteå, Sverige

Skellefteå Airport

latitud: 64-38N, longitud: 021-05E, höjd: 49 m

Aktuellt väderrapport

Denna rapport gjordes för 24 minuter sedan, klockan 02:50 UTC
Vind 4 kt från ost/nordost
Temperatur -6°C
Fuktighet 93%
Tryck 1001 hPa
Sikt: 3300 m
(lätt) underkylt, regn

METAR: ESNS 190250Z AUTO 07004KT 3300 -FZRA ///042 M06/M07 Q1001

Tid: 04:14 (03:14 UTC)

Väderprognos

Denna rapport gjordes för 6 timmar och 44 minuter sedan, klockan 20:30 UTC
Prognos gäller från 18 kl. 21 UTC till 18 kl. 23 UTC
Vind 3 kt från nord/nordväst
Sikt: 5000 m
Spridda moln på en höjd av 1000 ft
Brutna moln på en höjd av 2500 ft
lätt snö
Temporärt
från 18 kl. 21 UTC till 18 kl. 23 UTC
Sikt: 1200 m
på en höjd av 400 ft
snö

TAF: ESNS 182030Z 1821/1823 34003KT 5000 -SN SCT010 BKN025 TEMPO 1821/1823 1200 SN VV004

Aktuella väderrapporter och prognoser från 4000 flygplatser (METAR- och TAF-rapporter).

De tillgängliga stationerna syns som gula och röda prickar på kartan.

För musen över prickarna för att se namnen på stationerna.

Klicka sedan för att få väderrapporter och prognoser.

För att ändra kartan: Klicka på de gröna knapparna med ett svart kors på för att zooma in; den gröna knappen med ett streck på för att zooma ut; eller på de gröna pilarna för angränsande kartor.


METAR-TAF: